sensor_id;sensor_type;location;lat;lon;timestamp;pressure;altitude;pressure_sealevel;temperature;humidity
15314;BME280;7757;52.626;4.746;2023-12-29T00:00:17;100264.66;;;13.15;73.37
15314;BME280;7757;52.626;4.746;2023-12-29T00:02:43;100263.81;;;13.15;72.29
15314;BME280;7757;52.626;4.746;2023-12-29T00:05:08;100249.38;;;13.16;72.80
15314;BME280;7757;52.626;4.746;2023-12-29T00:07:33;100258.25;;;13.16;72.32
15314;BME280;7757;52.626;4.746;2023-12-29T00:09:59;100250.19;;;13.16;72.57
15314;BME280;7757;52.626;4.746;2023-12-29T00:12:24;100243.16;;;13.15;72.90
15314;BME280;7757;52.626;4.746;2023-12-29T00:14:49;100232.19;;;13.17;72.27
15314;BME280;7757;52.626;4.746;2023-12-29T00:17:14;100228.91;;;13.15;73.21
15314;BME280;7757;52.626;4.746;2023-12-29T00:19:40;100220.03;;;13.14;72.19
15314;BME280;7757;52.626;4.746;2023-12-29T00:22:05;100213.63;;;13.15;73.32
15314;BME280;7757;52.626;4.746;2023-12-29T00:24:30;100206.19;;;13.17;72.73
15314;BME280;7757;52.626;4.746;2023-12-29T00:26:59;100183.72;;;13.12;72.76
15314;BME280;7757;52.626;4.746;2023-12-29T00:29:24;100196.25;;;13.18;72.56
15314;BME280;7757;52.626;4.746;2023-12-29T00:31:50;100196.69;;;13.15;72.90
15314;BME280;7757;52.626;4.746;2023-12-29T00:34:15;100184.69;;;13.17;72.79
15314;BME280;7757;52.626;4.746;2023-12-29T00:36:40;100191.72;;;13.18;72.19
15314;BME280;7757;52.626;4.746;2023-12-29T00:39:06;100190.91;;;13.18;72.11
15314;BME280;7757;52.626;4.746;2023-12-29T00:41:31;100199.19;;;13.16;72.55
15314;BME280;7757;52.626;4.746;2023-12-29T00:43:57;100198.13;;;13.17;72.55
15314;BME280;7757;52.626;4.746;2023-12-29T00:46:22;100196.25;;;13.18;72.43
15314;BME280;7757;52.626;4.746;2023-12-29T00:48:48;100201.88;;;13.16;73.01
15314;BME280;7757;52.626;4.746;2023-12-29T00:51:13;100208.66;;;13.19;72.39
15314;BME280;7757;52.626;4.746;2023-12-29T00:53:38;100214.47;;;13.16;72.98
15314;BME280;7757;52.626;4.746;2023-12-29T00:56:09;100204.56;;;13.16;73.34
15314;BME280;7757;52.626;4.746;2023-12-29T00:58:34;100207.00;;;13.18;72.77
15314;BME280;7757;52.626;4.746;2023-12-29T01:01:00;100190.06;;;13.17;72.20
15314;BME280;7757;52.626;4.746;2023-12-29T01:03:25;100170.44;;;13.17;72.55
15314;BME280;7757;52.626;4.746;2023-12-29T01:05:50;100185.31;;;13.19;72.82
15314;BME280;7757;52.626;4.746;2023-12-29T01:08:15;100179.13;;;13.19;72.83
15314;BME280;7757;52.626;4.746;2023-12-29T01:10:40;100186.34;;;13.18;73.42
15314;BME280;7757;52.626;4.746;2023-12-29T01:13:06;100178.28;;;13.18;73.41
15314;BME280;7757;52.626;4.746;2023-12-29T01:15:31;100190.91;;;13.18;72.62
15314;BME280;7757;52.626;4.746;2023-12-29T01:17:56;100180.75;;;13.20;73.25
15314;BME280;7757;52.626;4.746;2023-12-29T01:20:21;100172.69;;;13.20;73.33
15314;BME280;7757;52.626;4.746;2023-12-29T01:22:47;100186.94;;;13.20;73.21
15314;BME280;7757;52.626;4.746;2023-12-29T01:25:12;100187.19;;;13.19;72.48
15314;BME280;7757;52.626;4.746;2023-12-29T01:27:37;100196.06;;;13.19;73.01
15314;BME280;7757;52.626;4.746;2023-12-29T01:30:02;100203.06;;;13.20;72.60
15314;BME280;7757;52.626;4.746;2023-12-29T01:32:28;100206.81;;;13.19;72.60
15314;BME280;7757;52.626;4.746;2023-12-29T01:34:53;100215.66;;;13.20;72.53
15314;BME280;7757;52.626;4.746;2023-12-29T07:37:36;100225.25;;;13.03;72.04
15314;BME280;7757;52.626;4.746;2023-12-29T07:40:02;100231.44;;;13.03;72.11
15314;BME280;7757;52.626;4.746;2023-12-29T07:42:28;100235.38;;;13.01;72.44
15314;BME280;7757;52.626;4.746;2023-12-29T07:44:54;100235.97;;;13.03;72.10
15314;BME280;7757;52.626;4.746;2023-12-29T07:47:21;100235.16;;;13.02;72.42
15314;BME280;7757;52.626;4.746;2023-12-29T07:49:46;100237.03;;;13.02;72.04
15314;BME280;7757;52.626;4.746;2023-12-29T07:52:12;100240.53;;;13.02;72.04
15314;BME280;7757;52.626;4.746;2023-12-29T07:54:37;100241.16;;;13.04;72.77
15314;BME280;7757;52.626;4.746;2023-12-29T07:57:02;100241.16;;;13.04;71.81
15314;BME280;7757;52.626;4.746;2023-12-29T07:59:27;100243.00;;;13.04;71.58
15314;BME280;7757;52.626;4.746;2023-12-29T08:01:53;100234.97;;;13.04;72.42
15314;BME280;7757;52.626;4.746;2023-12-29T08:04:18;100243.22;;;13.02;72.55
15314;BME280;7757;52.626;4.746;2023-12-29T08:06:43;100258.53;;;13.02;72.58
15314;BME280;7757;52.626;4.746;2023-12-29T08:09:09;100253.75;;;13.04;71.63
15314;BME280;7757;52.626;4.746;2023-12-29T08:11:34;100261.81;;;13.04;72.15
15314;BME280;7757;52.626;4.746;2023-12-29T08:13:59;100254.34;;;13.06;72.09
15314;BME280;7757;52.626;4.746;2023-12-29T08:16:24;100246.53;;;13.04;71.97
15314;BME280;7757;52.626;4.746;2023-12-29T08:18:50;100246.53;;;13.04;72.25
15314;BME280;7757;52.626;4.746;2023-12-29T08:21:21;100251.06;;;13.04;72.48
15314;BME280;7757;52.626;4.746;2023-12-29T08:23:46;100252.72;;;13.05;72.41
15314;BME280;7757;52.626;4.746;2023-12-29T08:26:12;100252.91;;;13.03;71.85
15314;BME280;7757;52.626;4.746;2023-12-29T08:28:37;100269.03;;;13.03;71.75
15314;BME280;7757;52.626;4.746;2023-12-29T08:31:02;100246.53;;;13.04;71.84
15314;BME280;7757;52.626;4.746;2023-12-29T08:33:28;100247.34;;;13.05;71.58
15314;BME280;7757;52.626;4.746;2023-12-29T08:35:53;100257.25;;;13.04;71.71
15314;BME280;7757;52.626;4.746;2023-12-29T08:38:18;100252.50;;;13.06;72.40
15314;BME280;7757;52.626;4.746;2023-12-29T08:40:43;100237.22;;;13.07;71.91
15314;BME280;7757;52.626;4.746;2023-12-29T08:43:08;100249.63;;;13.08;71.53
15314;BME280;7757;52.626;4.746;2023-12-29T08:45:34;100242.38;;;13.08;72.12
15314;BME280;7757;52.626;4.746;2023-12-29T08:48:00;100246.94;;;13.08;71.12
15314;BME280;7757;52.626;4.746;2023-12-29T08:50:25;100246.72;;;13.09;72.05
15314;BME280;7757;52.626;4.746;2023-12-29T08:52:50;100251.25;;;13.09;71.23
15314;BME280;7757;52.626;4.746;2023-12-29T08:55:16;100246.72;;;13.09;71.21
15314;BME280;7757;52.626;4.746;2023-12-29T08:57:41;100245.88;;;13.09;72.07
15314;BME280;7757;52.626;4.746;2023-12-29T09:00:07;100244.88;;;13.10;71.71
15314;BME280;7757;52.626;4.746;2023-12-29T09:02:34;100249.22;;;13.11;71.73
15314;BME280;7757;52.626;4.746;2023-12-29T09:04:59;100247.31;;;13.11;71.49
15314;BME280;7757;52.626;4.746;2023-12-29T09:07:24;100253.13;;;13.08;72.15
15314;BME280;7757;52.626;4.746;2023-12-29T09:09:51;100259.31;;;13.09;71.91
15314;BME280;7757;52.626;4.746;2023-12-29T09:12:16;100266.34;;;13.10;71.92
15314;BME280;7757;52.626;4.746;2023-12-29T09:14:41;100261.13;;;13.15;71.91
15314;BME280;7757;52.626;4.746;2023-12-29T09:17:07;100258.69;;;13.13;70.99
15314;BME280;7757;52.626;4.746;2023-12-29T09:19:32;100258.88;;;13.12;71.25
15314;BME280;7757;52.626;4.746;2023-12-29T09:21:57;100265.47;;;13.16;70.75
15314;BME280;7757;52.626;4.746;2023-12-29T09:24:22;100259.28;;;13.15;71.18
15314;BME280;7757;52.626;4.746;2023-12-29T09:26:48;100260.50;;;13.19;70.94
15314;BME280;7757;52.626;4.746;2023-12-29T09:29:13;100257.19;;;13.17;71.27
15314;BME280;7757;52.626;4.746;2023-12-29T09:31:38;100273.09;;;13.19;71.85
15314;BME280;7757;52.626;4.746;2023-12-29T09:34:03;100273.94;;;13.19;71.78
15314;BME280;7757;52.626;4.746;2023-12-29T09:36:29;100285.47;;;13.20;71.36
15314;BME280;7757;52.626;4.746;2023-12-29T09:38:54;100281.56;;;13.22;70.83
15314;BME280;7757;52.626;4.746;2023-12-29T09:41:20;100288.56;;;13.23;70.96
15314;BME280;7757;52.626;4.746;2023-12-29T09:43:47;100291.03;;;13.25;71.42
15314;BME280;7757;52.626;4.746;2023-12-29T09:46:13;100296.81;;;13.28;70.87
15314;BME280;7757;52.626;4.746;2023-12-29T09:48:40;100304.84;;;13.28;71.37
15314;BME280;7757;52.626;4.746;2023-12-29T09:51:07;100292.03;;;13.30;70.25
15314;BME280;7757;52.626;4.746;2023-12-29T09:53:34;100306.28;;;13.31;71.31
15314;BME280;7757;52.626;4.746;2023-12-29T09:56:01;100300.69;;;13.32;71.08
15314;BME280;7757;52.626;4.746;2023-12-29T09:58:28;100312.00;;;13.34;70.51
15314;BME280;7757;52.626;4.746;2023-12-29T10:00:53;100303.97;;;13.34;70.44
15314;BME280;7757;52.626;4.746;2023-12-29T10:03:19;100322.75;;;13.34;70.93
15314;BME280;7757;52.626;4.746;2023-12-29T10:05:44;100324.66;;;13.34;69.81
15314;BME280;7757;52.626;4.746;2023-12-29T10:08:15;100324.41;;;13.35;70.99
15314;BME280;7757;52.626;4.746;2023-12-29T10:10:41;100331.44;;;13.36;70.39
15314;BME280;7757;52.626;4.746;2023-12-29T10:13:07;100332.28;;;13.37;70.98
15314;BME280;7757;52.626;4.746;2023-12-29T10:15:37;100324.00;;;13.38;70.27
15314;BME280;7757;52.626;4.746;2023-12-29T10:18:15;100339.28;;;13.38;70.29
15314;BME280;7757;52.626;4.746;2023-12-29T10:21:02;100326.66;;;13.38;70.06
15314;BME280;7757;52.626;4.746;2023-12-29T10:23:40;100341.75;;;13.39;70.39
15314;BME280;7757;52.626;4.746;2023-12-29T10:26:07;100335.56;;;13.39;69.83
15314;BME280;7757;52.626;4.746;2023-12-29T10:28:32;100332.47;;;13.35;70.04
15314;BME280;7757;52.626;4.746;2023-12-29T10:30:57;100340.94;;;13.39;69.82
15314;BME280;7757;52.626;4.746;2023-12-29T10:33:23;100346.31;;;13.39;69.94
15314;BME280;7757;52.626;4.746;2023-12-29T10:35:56;100341.75;;;13.39;69.46
15314;BME280;7757;52.626;4.746;2023-12-29T10:38:22;100350.03;;;13.38;69.91
15314;BME280;7757;52.626;4.746;2023-12-29T10:40:48;100358.31;;;13.36;69.98
15314;BME280;7757;52.626;4.746;2023-12-29T10:43:13;100337.25;;;13.33;70.38
15314;BME280;7757;52.626;4.746;2023-12-29T10:45:38;100339.31;;;13.31;70.68
15314;BME280;7757;52.626;4.746;2023-12-29T10:48:04;100340.38;;;13.30;70.62
15314;BME280;7757;52.626;4.746;2023-12-29T10:50:30;100343.66;;;13.32;70.17
15314;BME280;7757;52.626;4.746;2023-12-29T10:53:12;100331.66;;;13.35;70.18
15314;BME280;7757;52.626;4.746;2023-12-29T10:55:37;100346.94;;;13.34;70.70
15314;BME280;7757;52.626;4.746;2023-12-29T10:58:03;100358.72;;;13.33;69.85
15314;BME280;7757;52.626;4.746;2023-12-29T11:00:31;100351.28;;;13.35;70.06
15314;BME280;7757;52.626;4.746;2023-12-29T11:02:57;100355.63;;;13.36;69.61
15314;BME280;7757;52.626;4.746;2023-12-29T11:05:25;100351.06;;;13.37;70.43
15314;BME280;7757;52.626;4.746;2023-12-29T11:07:50;100361.59;;;13.38;70.21
15314;BME280;7757;52.626;4.746;2023-12-29T11:10:18;100360.16;;;13.36;70.77
15314;BME280;7757;52.626;4.746;2023-12-29T11:12:45;100355.19;;;13.39;69.89
15314;BME280;7757;52.626;4.746;2023-12-29T11:15:11;100363.66;;;13.43;69.63
15314;BME280;7757;52.626;4.746;2023-12-29T11:17:38;100363.66;;;13.43;69.53
15314;BME280;7757;52.626;4.746;2023-12-29T11:20:04;100363.84;;;13.41;68.97
15314;BME280;7757;52.626;4.746;2023-12-29T11:22:30;100370.44;;;13.46;69.60
15314;BME280;7757;52.626;4.746;2023-12-29T11:24:59;100369.38;;;13.47;69.39
15314;BME280;7757;52.626;4.746;2023-12-29T11:27:28;100377.25;;;13.48;68.29
15314;BME280;7757;52.626;4.746;2023-12-29T11:29:55;100378.91;;;13.49;69.00
15314;BME280;7757;52.626;4.746;2023-12-29T11:32:22;100378.66;;;13.51;69.23
15314;BME280;7757;52.626;4.746;2023-12-29T11:34:55;100377.44;;;13.47;69.26
15314;BME280;7757;52.626;4.746;2023-12-29T11:39:51;100382.59;;;13.55;69.08
15314;BME280;7757;52.626;4.746;2023-12-29T11:42:23;100376.22;;;13.49;68.53
15314;BME280;7757;52.626;4.746;2023-12-29T11:44:52;100381.34;;;13.51;68.85
15314;BME280;7757;52.626;4.746;2023-12-29T11:47:36;100371.88;;;13.48;68.89
15314;BME280;7757;52.626;4.746;2023-12-29T11:50:02;100368.75;;;13.51;69.07
15314;BME280;7757;52.626;4.746;2023-12-29T11:52:38;100362.31;;;13.52;68.42
15314;BME280;7757;52.626;4.746;2023-12-29T11:55:07;100373.91;;;13.53;68.17
15314;BME280;7757;52.626;4.746;2023-12-29T11:57:32;100367.88;;;13.57;67.79
15314;BME280;7757;52.626;4.746;2023-12-29T11:59:57;100373.91;;;13.53;68.66
15314;BME280;7757;52.626;4.746;2023-12-29T12:02:29;100375.13;;;13.57;68.78
15314;BME280;7757;52.626;4.746;2023-12-29T12:04:54;100376.97;;;13.56;68.38
15314;BME280;7757;52.626;4.746;2023-12-29T12:09:48;100372.19;;;13.58;68.22
15314;BME280;7757;52.626;4.746;2023-12-29T12:15:02;100373.66;;;13.61;68.56
15314;BME280;7757;52.626;4.746;2023-12-29T12:19:56;100385.63;;;13.58;67.62
15314;BME280;7757;52.626;4.746;2023-12-29T12:22:22;100382.75;;;13.60;68.10
15314;BME280;7757;52.626;4.746;2023-12-29T12:24:48;100382.16;;;13.58;68.21
15314;BME280;7757;52.626;4.746;2023-12-29T12:27:13;100388.31;;;13.58;67.61
15314;BME280;7757;52.626;4.746;2023-12-29T12:29:39;100388.75;;;13.55;68.70
15314;BME280;7757;52.626;4.746;2023-12-29T12:32:04;100385.44;;;13.60;67.94
15314;BME280;7757;52.626;4.746;2023-12-29T12:34:38;100380.50;;;13.57;68.54
15314;BME280;7757;52.626;4.746;2023-12-29T12:37:04;100371.41;;;13.58;67.76
15314;BME280;7757;52.626;4.746;2023-12-29T12:39:39;100372.44;;;13.57;68.48
15314;BME280;7757;52.626;4.746;2023-12-29T12:42:05;100367.66;;;13.59;68.25
15314;BME280;7757;52.626;4.746;2023-12-29T12:44:30;100374.47;;;13.61;67.89
15314;BME280;7757;52.626;4.746;2023-12-29T12:46:56;100380.47;;;13.63;67.83
15314;BME280;7757;52.626;4.746;2023-12-29T12:49:22;100384.41;;;13.61;68.56
15314;BME280;7757;52.626;4.746;2023-12-29T12:51:48;100380.22;;;13.65;68.13
15314;BME280;7757;52.626;4.746;2023-12-29T12:54:15;100379.19;;;13.66;67.88
15314;BME280;7757;52.626;4.746;2023-12-29T12:56:42;100367.84;;;13.64;68.03
15314;BME280;7757;52.626;4.746;2023-12-29T12:59:07;100371.56;;;13.63;68.42
15314;BME280;7757;52.626;4.746;2023-12-29T13:01:34;100383.56;;;13.60;68.24
15314;BME280;7757;52.626;4.746;2023-12-29T13:04:00;100376.34;;;13.61;68.30
15314;BME280;7757;52.626;4.746;2023-12-29T13:06:26;100382.31;;;13.63;67.64
15314;BME280;7757;52.626;4.746;2023-12-29T13:08:51;100384.41;;;13.61;67.66
15314;BME280;7757;52.626;4.746;2023-12-29T13:11:20;100384.59;;;13.59;68.63
15314;BME280;7757;52.626;4.746;2023-12-29T13:13:50;100377.38;;;13.60;68.42
15314;BME280;7757;52.626;4.746;2023-12-29T13:16:34;100368.88;;;13.63;68.45
15314;BME280;7757;52.626;4.746;2023-12-29T13:21:50;100368.50;;;13.59;68.61
15314;BME280;7757;52.626;4.746;2023-12-29T13:24:16;100366.63;;;13.60;67.66
15314;BME280;7757;52.626;4.746;2023-12-29T13:26:43;100361.25;;;13.60;68.71
15314;BME280;7757;52.626;4.746;2023-12-29T13:29:09;100349.03;;;13.64;68.22
15314;BME280;7757;52.626;4.746;2023-12-29T13:31:34;100341.19;;;13.62;67.88
15314;BME280;7757;52.626;4.746;2023-12-29T13:34:06;100351.72;;;13.64;68.26
15314;BME280;7757;52.626;4.746;2023-12-29T13:36:43;100350.94;;;13.57;68.57
15314;BME280;7757;52.626;4.746;2023-12-29T13:39:14;100342.47;;;13.53;68.38
15314;BME280;7757;52.626;4.746;2023-12-29T13:41:44;100355.72;;;13.55;69.06
15314;BME280;7757;52.626;4.746;2023-12-29T13:44:10;100361.47;;;13.58;68.97
15314;BME280;7757;52.626;4.746;2023-12-29T13:46:35;100370.97;;;13.61;68.46
15314;BME280;7757;52.626;4.746;2023-12-29T13:49:01;100366.03;;;13.58;69.01
15314;BME280;7757;52.626;4.746;2023-12-29T13:51:28;100374.94;;;13.52;68.92
15314;BME280;7757;52.626;4.746;2023-12-29T13:53:59;100337.69;;;13.30;68.13
15314;BME280;7757;52.626;4.746;2023-12-29T13:56:25;100372.88;;;13.54;68.99
15314;BME280;7757;52.626;4.746;2023-12-29T13:58:53;100375.75;;;13.52;68.72
15314;BME280;7757;52.626;4.746;2023-12-29T14:01:18;100380.50;;;13.57;68.77
15314;BME280;7757;52.626;4.746;2023-12-29T14:06:11;100360.28;;;13.48;69.00
15314;BME280;7757;52.626;4.746;2023-12-29T14:08:39;100355.94;;;13.47;68.72
15314;BME280;7757;52.626;4.746;2023-12-29T14:11:08;100359.63;;;13.52;69.34
15314;BME280;7757;52.626;4.746;2023-12-29T14:13:34;100369.34;;;13.53;68.76
15314;BME280;7757;52.626;4.746;2023-12-29T14:15:59;100378.66;;;13.51;68.69
15314;BME280;7757;52.626;4.746;2023-12-29T14:18:35;100375.16;;;13.50;69.65
15314;BME280;7757;52.626;4.746;2023-12-29T14:24:05;100372.06;;;13.47;69.10
15314;BME280;7757;52.626;4.746;2023-12-29T14:26:31;100369.19;;;13.48;69.31
15314;BME280;7757;52.626;4.746;2023-12-29T14:29:06;100372.31;;;13.45;69.56
15314;BME280;7757;52.626;4.746;2023-12-29T14:31:36;100369.38;;;13.47;69.40
15314;BME280;7757;52.626;4.746;2023-12-29T14:34:02;100354.09;;;13.47;68.56
15314;BME280;7757;52.626;4.746;2023-12-29T14:36:27;100344.41;;;13.46;69.44
15314;BME280;7757;52.626;4.746;2023-12-29T14:38:53;100345.59;;;13.50;69.13
15314;BME280;7757;52.626;4.746;2023-12-29T14:41:18;100340.22;;;13.50;68.48
15314;BME280;7757;52.626;4.746;2023-12-29T14:43:43;100351.38;;;13.54;69.24
15314;BME280;7757;52.626;4.746;2023-12-29T14:46:08;100350.78;;;13.52;68.78
15314;BME280;7757;52.626;4.746;2023-12-29T14:48:34;100340.75;;;13.65;69.70
15314;BME280;7757;52.626;4.746;2023-12-29T14:50:59;100329.63;;;13.86;70.52
15314;BME280;7757;52.626;4.746;2023-12-29T14:53:24;100323.81;;;13.89;70.79
15314;BME280;7757;52.626;4.746;2023-12-29T14:55:50;100323.47;;;13.79;71.13
15314;BME280;7757;52.626;4.746;2023-12-29T14:58:15;100327.66;;;13.75;71.17
15314;BME280;7757;52.626;4.746;2023-12-29T15:00:43;100316.09;;;13.75;70.86
15314;BME280;7757;52.626;4.746;2023-12-29T15:03:11;100308.22;;;13.73;71.34
15314;BME280;7757;52.626;4.746;2023-12-29T15:05:38;100312.34;;;13.76;70.78
15314;BME280;7757;52.626;4.746;2023-12-29T15:08:04;100299.13;;;13.74;70.91
15314;BME280;7757;52.626;4.746;2023-12-29T15:10:30;100306.38;;;13.74;71.21
15314;BME280;7757;52.626;4.746;2023-12-29T15:12:55;100305.53;;;13.73;70.80
15314;BME280;7757;52.626;4.746;2023-12-29T15:15:20;100318.16;;;13.73;70.42
15314;BME280;7757;52.626;4.746;2023-12-29T15:17:45;100313.41;;;13.75;70.41
15314;BME280;7757;52.626;4.746;2023-12-29T15:20:11;100312.19;;;13.71;70.17
15314;BME280;7757;52.626;4.746;2023-12-29T15:22:36;100311.75;;;13.74;71.00
15314;BME280;7757;52.626;4.746;2023-12-29T15:25:02;100311.97;;;13.72;70.81
15314;BME280;7757;52.626;4.746;2023-12-29T15:27:27;100309.50;;;13.71;69.92
15314;BME280;7757;52.626;4.746;2023-12-29T15:29:52;100306.59;;;13.72;70.69
15314;BME280;7757;52.626;4.746;2023-12-29T15:32:17;100303.28;;;13.70;70.67
15314;BME280;7757;52.626;4.746;2023-12-29T15:34:42;100294.78;;;13.73;70.27
15314;BME280;7757;52.626;4.746;2023-12-29T15:37:08;100298.53;;;13.72;70.48
15314;BME280;7757;52.626;4.746;2023-12-29T15:39:33;100302.03;;;13.73;70.63
15314;BME280;7757;52.626;4.746;2023-12-29T15:41:58;100302.03;;;13.73;70.51
15314;BME280;7757;52.626;4.746;2023-12-29T15:44:23;100299.13;;;13.74;70.53
15314;BME280;7757;52.626;4.746;2023-12-29T15:46:49;100296.44;;;13.74;69.97
15314;BME280;7757;52.626;4.746;2023-12-29T15:49:15;100303.47;;;13.75;70.47
15314;BME280;7757;52.626;4.746;2023-12-29T15:51:40;100283.97;;;13.55;70.14
15314;BME280;7757;52.626;4.746;2023-12-29T15:54:06;100317.13;;;13.74;70.04
15314;BME280;7757;52.626;4.746;2023-12-29T15:56:31;100301.16;;;13.79;70.31
15314;BME280;7757;52.626;4.746;2023-12-29T15:58:56;100315.66;;;13.78;70.01
15314;BME280;7757;52.626;4.746;2023-12-29T16:01:23;100331.97;;;13.76;70.27
15314;BME280;7757;52.626;4.746;2023-12-29T16:03:50;100328.03;;;13.79;70.30
15314;BME280;7757;52.626;4.746;2023-12-29T16:06:22;100329.91;;;13.78;70.44
15314;BME280;7757;52.626;4.746;2023-12-29T16:08:48;100327.44;;;13.77;70.34
15314;BME280;7757;52.626;4.746;2023-12-29T16:11:18;100339.41;;;13.81;70.03
15314;BME280;7757;52.626;4.746;2023-12-29T16:13:43;100334.03;;;13.81;70.81
15314;BME280;7757;52.626;4.746;2023-12-29T16:16:08;100317.91;;;13.81;70.05
15314;BME280;7757;52.626;4.746;2023-12-29T16:18:34;100314.16;;;13.82;70.42
15314;BME280;7757;52.626;4.746;2023-12-29T16:20:59;100313.34;;;13.81;70.93
15314;BME280;7757;52.626;4.746;2023-12-29T16:23:24;100325.13;;;13.80;70.60
15314;BME280;7757;52.626;4.746;2023-12-29T16:25:49;100313.13;;;13.83;70.44
15314;BME280;7757;52.626;4.746;2023-12-29T16:28:14;100317.66;;;13.82;70.87
15314;BME280;7757;52.626;4.746;2023-12-29T16:30:40;100314.97;;;13.82;70.88
15314;BME280;7757;52.626;4.746;2023-12-29T16:33:05;100322.00;;;13.83;70.40
15314;BME280;7757;52.626;4.746;2023-12-29T16:35:31;100323.03;;;13.82;70.89
15314;BME280;7757;52.626;4.746;2023-12-29T16:37:56;100313.72;;;13.85;71.02
15314;BME280;7757;52.626;4.746;2023-12-29T16:40:21;100317.47;;;13.84;71.13
15314;BME280;7757;52.626;4.746;2023-12-29T16:42:46;100300.25;;;13.85;70.63
15314;BME280;7757;52.626;4.746;2023-12-29T16:45:11;100302.16;;;13.84;71.00
15314;BME280;7757;52.626;4.746;2023-12-29T16:47:37;100291.16;;;13.86;71.00
15314;BME280;7757;52.626;4.746;2023-12-29T16:50:02;100294.88;;;13.85;70.33
15314;BME280;7757;52.626;4.746;2023-12-29T16:52:27;100295.94;;;13.84;70.39
15314;BME280;7757;52.626;4.746;2023-12-29T16:54:53;100313.72;;;13.85;70.95
15314;BME280;7757;52.626;4.746;2023-12-29T16:57:18;100309.41;;;13.84;70.29
15314;BME280;7757;52.626;4.746;2023-12-29T16:59:43;100311.25;;;13.83;71.05
15314;BME280;7757;52.626;4.746;2023-12-29T17:02:08;100306.91;;;13.82;70.55
15314;BME280;7757;52.626;4.746;2023-12-29T17:04:36;100309.59;;;13.82;71.30
15314;BME280;7757;52.626;4.746;2023-12-29T17:07:01;100305.03;;;13.83;71.00
15314;BME280;7757;52.626;4.746;2023-12-29T17:09:26;100311.47;;;13.82;70.52
15314;BME280;7757;52.626;4.746;2023-12-29T17:11:52;100315.78;;;13.83;71.29
15314;BME280;7757;52.626;4.746;2023-12-29T17:14:17;100330.91;;;13.84;70.27
15314;BME280;7757;52.626;4.746;2023-12-29T17:16:42;100329.25;;;13.83;70.56
15314;BME280;7757;52.626;4.746;2023-12-29T17:19:08;100339.16;;;13.82;70.74
15314;BME280;7757;52.626;4.746;2023-12-29T17:21:34;100337.16;;;13.78;70.73
15314;BME280;7757;52.626;4.746;2023-12-29T17:23:59;100339.16;;;13.82;71.17
15314;BME280;7757;52.626;4.746;2023-12-29T17:26:24;100330.91;;;13.84;70.46
15314;BME280;7757;52.626;4.746;2023-12-29T17:28:49;100327.38;;;13.83;70.97
15314;BME280;7757;52.626;4.746;2023-12-29T17:31:16;100322.59;;;13.85;70.42
15314;BME280;7757;52.626;4.746;2023-12-29T17:33:41;100324.47;;;13.85;71.20
15314;BME280;7757;52.626;4.746;2023-12-29T17:36:07;100327.53;;;13.88;70.30
15314;BME280;7757;52.626;4.746;2023-12-29T17:38:32;100320.75;;;13.86;70.85
15314;BME280;7757;52.626;4.746;2023-12-29T17:41:01;100330.47;;;13.87;70.87
15314;BME280;7757;52.626;4.746;2023-12-29T17:43:26;100329.41;;;13.88;70.53
15314;BME280;7757;52.626;4.746;2023-12-29T17:45:51;100329.63;;;13.86;71.03
15314;BME280;7757;52.626;4.746;2023-12-29T17:48:17;100335.00;;;13.86;71.58
15314;BME280;7757;52.626;4.746;2023-12-29T17:50:42;100332.09;;;13.88;71.47
15314;BME280;7757;52.626;4.746;2023-12-29T17:53:07;100342.63;;;13.89;71.14
15314;BME280;7757;52.626;4.746;2023-12-29T17:55:33;100337.25;;;13.89;70.97
15314;BME280;7757;52.626;4.746;2023-12-29T17:57:58;100339.94;;;13.89;71.51
15314;BME280;7757;52.626;4.746;2023-12-29T18:00:23;100340.78;;;13.90;70.74
15314;BME280;7757;52.626;4.746;2023-12-29T18:02:49;100349.66;;;13.90;71.30
15314;BME280;7757;52.626;4.746;2023-12-29T18:05:14;100356.91;;;13.90;71.61
15314;BME280;7757;52.626;4.746;2023-12-29T18:07:39;100351.72;;;13.88;71.66
15314;BME280;7757;52.626;4.746;2023-12-29T18:10:05;100363.69;;;13.92;71.65
15314;BME280;7757;52.626;4.746;2023-12-29T18:12:32;100361.00;;;13.92;71.53
15314;BME280;7757;52.626;4.746;2023-12-29T18:14:57;100366.16;;;13.94;70.92
15314;BME280;7757;52.626;4.746;2023-12-29T18:17:22;100364.53;;;13.93;71.45
15314;BME280;7757;52.626;4.746;2023-12-29T18:19:47;100369.66;;;13.94;70.89
15314;BME280;7757;52.626;4.746;2023-12-29T18:22:13;100373.63;;;13.92;71.49
15314;BME280;7757;52.626;4.746;2023-12-29T18:24:42;100372.59;;;13.93;72.00
15314;BME280;7757;52.626;4.746;2023-12-29T18:27:07;100375.47;;;13.91;71.43
15314;BME280;7757;52.626;4.746;2023-12-29T18:29:32;100379.00;;;13.92;71.92
15314;BME280;7757;52.626;4.746;2023-12-29T18:31:58;100385.41;;;13.91;71.62
15314;BME280;7757;52.626;4.746;2023-12-29T18:34:23;100389.53;;;13.93;71.67
15314;BME280;7757;52.626;4.746;2023-12-29T18:36:48;100381.69;;;13.92;72.40
15314;BME280;7757;52.626;4.746;2023-12-29T18:39:13;100394.69;;;13.95;72.06
15314;BME280;7757;52.626;4.746;2023-12-29T18:41:40;100391.63;;;13.91;72.29
15314;BME280;7757;52.626;4.746;2023-12-29T18:44:05;100392.44;;;13.92;72.25
15314;BME280;7757;52.626;4.746;2023-12-29T18:46:31;100391.63;;;13.91;71.58
15314;BME280;7757;52.626;4.746;2023-12-29T18:48:57;100389.38;;;13.88;72.03
15314;BME280;7757;52.626;4.746;2023-12-29T18:51:24;100389.38;;;13.88;71.71
15314;BME280;7757;52.626;4.746;2023-12-29T18:53:49;100400.34;;;13.87;72.68
15314;BME280;7757;52.626;4.746;2023-12-29T18:56:15;100388.53;;;13.88;72.05
15314;BME280;7757;52.626;4.746;2023-12-29T18:58:40;100396.41;;;13.89;72.05
15314;BME280;7757;52.626;4.746;2023-12-29T19:01:06;100392.06;;;13.88;72.29
15314;BME280;7757;52.626;4.746;2023-12-29T19:03:32;100392.50;;;13.85;72.25
15314;BME280;7757;52.626;4.746;2023-12-29T19:05:59;100397.84;;;13.85;71.76
15314;BME280;7757;52.626;4.746;2023-12-29T19:08:25;100397.25;;;13.83;72.08
15314;BME280;7757;52.626;4.746;2023-12-29T19:10:50;100389.59;;;13.87;72.16
15314;BME280;7757;52.626;4.746;2023-12-29T19:13:16;100398.50;;;13.87;72.34